sensor_id;sensor_type;location;lat;lon;timestamp;pressure;altitude;pressure_sealevel;temperature;humidity
30897;BME280;64229;52.246;21.054;2023-08-12T00:00:04;101200.78;;;15.74;84.00
30897;BME280;64229;52.246;21.054;2023-08-12T00:02:36;101197.00;;;15.70;84.50
30897;BME280;64229;52.246;21.054;2023-08-12T00:05:01;101194.88;;;15.67;84.50
30897;BME280;64229;52.246;21.054;2023-08-12T00:07:26;101202.44;;;15.65;85.02
30897;BME280;64229;52.246;21.054;2023-08-12T00:09:52;101200.03;;;15.63;85.75
30897;BME280;64229;52.246;21.054;2023-08-12T00:12:17;101205.66;;;15.61;85.60
30897;BME280;64229;52.246;21.054;2023-08-12T00:14:42;101200.81;;;15.58;85.94
30897;BME280;64229;52.246;21.054;2023-08-12T00:17:07;101205.66;;;15.56;86.31
30897;BME280;64229;52.246;21.054;2023-08-12T00:19:33;101200.84;;;15.53;86.82
30897;BME280;64229;52.246;21.054;2023-08-12T00:21:58;101210.78;;;15.53;86.80
30897;BME280;64229;52.246;21.054;2023-08-12T00:24:23;101204.34;;;15.49;86.95
30897;BME280;64229;52.246;21.054;2023-08-12T00:26:48;101204.34;;;15.49;87.64
30897;BME280;64229;52.246;21.054;2023-08-12T00:29:14;101206.22;;;15.48;87.26
30897;BME280;64229;52.246;21.054;2023-08-12T00:31:40;101208.38;;;15.46;87.64
30897;BME280;64229;52.246;21.054;2023-08-12T00:34:05;101204.38;;;15.44;87.79
30897;BME280;64229;52.246;21.054;2023-08-12T00:36:31;101192.53;;;15.40;87.69
30897;BME280;64229;52.246;21.054;2023-08-12T00:38:56;101196.06;;;15.35;87.71
30897;BME280;64229;52.246;21.054;2023-08-12T00:41:21;101192.84;;;15.33;87.96
30897;BME280;64229;52.246;21.054;2023-08-12T00:43:47;101200.09;;;15.32;87.84
30897;BME280;64229;52.246;21.054;2023-08-12T00:46:12;101201.19;;;15.31;87.83
30897;BME280;64229;52.246;21.054;2023-08-12T00:48:38;101197.13;;;15.29;88.54
30897;BME280;64229;52.246;21.054;2023-08-12T00:51:03;101198.22;;;15.28;88.44
30897;BME280;64229;52.246;21.054;2023-08-12T00:53:29;101199.31;;;15.27;88.60
30897;BME280;64229;52.246;21.054;2023-08-12T00:55:54;101200.94;;;15.23;88.59
30897;BME280;64229;52.246;21.054;2023-08-12T00:58:20;101182.38;;;15.16;89.02
30897;BME280;64229;52.246;21.054;2023-08-12T01:00:45;101195.84;;;15.21;89.03
30897;BME280;64229;52.246;21.054;2023-08-12T01:03:11;101196.88;;;15.20;89.22
30897;BME280;64229;52.246;21.054;2023-08-12T01:05:37;101193.41;;;15.20;89.17
30897;BME280;64229;52.246;21.054;2023-08-12T01:08:02;101185.59;;;15.18;89.42
30897;BME280;64229;52.246;21.054;2023-08-12T01:10:33;101186.16;;;15.15;89.31
30897;BME280;64229;52.246;21.054;2023-08-12T01:13:13;101190.75;;;15.15;89.42
30897;BME280;64229;52.246;21.054;2023-08-12T01:15:43;101192.91;;;15.13;89.84
30897;BME280;64229;52.246;21.054;2023-08-12T01:18:09;101185.91;;;15.12;90.22
30897;BME280;64229;52.246;21.054;2023-08-12T01:20:36;101194.25;;;15.10;90.62
30897;BME280;64229;52.246;21.054;2023-08-12T01:23:12;101190.72;;;15.10;90.83
30897;BME280;64229;52.246;21.054;2023-08-12T01:25:38;101195.31;;;15.09;91.20
30897;BME280;64229;52.246;21.054;2023-08-12T01:28:04;101189.41;;;15.07;91.34
30897;BME280;64229;52.246;21.054;2023-08-12T01:30:29;101185.09;;;15.06;91.51
30897;BME280;64229;52.246;21.054;2023-08-12T01:33:01;101191.56;;;15.05;91.38
30897;BME280;64229;52.246;21.054;2023-08-12T01:35:35;101190.75;;;15.04;91.42
30897;BME280;64229;52.246;21.054;2023-08-12T01:38:04;101193.72;;;15.03;91.80
30897;BME280;64229;52.246;21.054;2023-08-12T01:40:31;101188.91;;;15.00;91.68
30897;BME280;64229;52.246;21.054;2023-08-12T01:42:57;101189.94;;;14.99;91.39
30897;BME280;64229;52.246;21.054;2023-08-12T01:45:23;101195.59;;;14.97;91.46
30897;BME280;64229;52.246;21.054;2023-08-12T01:47:48;101197.22;;;14.93;91.46
30897;BME280;64229;52.246;21.054;2023-08-12T01:50:16;101193.75;;;14.93;91.91
30897;BME280;64229;52.246;21.054;2023-08-12T01:52:41;101190.53;;;14.91;92.05
30897;BME280;64229;52.246;21.054;2023-08-12T01:55:07;101192.13;;;14.87;92.05
30897;BME280;64229;52.246;21.054;2023-08-12T01:57:32;101188.91;;;14.85;91.69
30897;BME280;64229;52.246;21.054;2023-08-12T01:59:57;101194.28;;;14.85;91.84
30897;BME280;64229;52.246;21.054;2023-08-12T02:02:23;101191.06;;;14.83;91.72
30897;BME280;64229;52.246;21.054;2023-08-12T02:04:48;101189.19;;;14.83;91.28
30897;BME280;64229;52.246;21.054;2023-08-12T02:07:13;101195.91;;;14.81;90.92
30897;BME280;64229;52.246;21.054;2023-08-12T02:09:38;101192.69;;;14.79;90.72
30897;BME280;64229;52.246;21.054;2023-08-12T02:12:04;101195.91;;;14.81;90.80
30897;BME280;64229;52.246;21.054;2023-08-12T02:14:29;101193.50;;;14.79;90.15
30897;BME280;64229;52.246;21.054;2023-08-12T02:16:55;101191.06;;;14.77;90.05
30897;BME280;64229;52.246;21.054;2023-08-12T02:19:20;101193.75;;;14.77;89.88
30897;BME280;64229;52.246;21.054;2023-08-12T02:21:45;101194.03;;;14.76;90.01
30897;BME280;64229;52.246;21.054;2023-08-12T02:24:10;101194.28;;;14.74;89.80
30897;BME280;64229;52.246;21.054;2023-08-12T02:26:37;101170.13;;;14.64;89.85
30897;BME280;64229;52.246;21.054;2023-08-12T02:29:02;101187.03;;;14.75;89.95
30897;BME280;64229;52.246;21.054;2023-08-12T02:31:27;101194.28;;;14.74;90.58
30897;BME280;64229;52.246;21.054;2023-08-12T02:33:53;101195.91;;;14.75;90.70
30897;BME280;64229;52.246;21.054;2023-08-12T02:36:18;101196.97;;;14.74;90.26
30897;BME280;64229;52.246;21.054;2023-08-12T02:38:44;101193.22;;;14.70;90.54
30897;BME280;64229;52.246;21.054;2023-08-12T02:41:09;101201.56;;;14.69;90.50
30897;BME280;64229;52.246;21.054;2023-08-12T02:43:34;101199.16;;;14.67;89.97
30897;BME280;64229;52.246;21.054;2023-08-12T02:46:00;101195.91;;;14.65;89.74
30897;BME280;64229;52.246;21.054;2023-08-12T02:48:25;101201.81;;;14.62;89.26
30897;BME280;64229;52.246;21.054;2023-08-12T02:50:51;101200.50;;;14.60;88.84
30897;BME280;64229;52.246;21.054;2023-08-12T02:53:16;101203.44;;;14.58;88.51
30897;BME280;64229;52.246;21.054;2023-08-12T02:55:41;101204.78;;;14.56;88.01
30897;BME280;64229;52.246;21.054;2023-08-12T02:58:07;101211.22;;;14.55;87.64
30897;BME280;64229;52.246;21.054;2023-08-12T03:00:32;101201.53;;;14.43;86.69
30897;BME280;64229;52.246;21.054;2023-08-12T03:02:57;101207.69;;;14.44;86.31
30897;BME280;64229;52.246;21.054;2023-08-12T03:05:22;101225.75;;;14.49;85.72
30897;BME280;64229;52.246;21.054;2023-08-12T03:07:48;101215.28;;;14.47;85.59
30897;BME280;64229;52.246;21.054;2023-08-12T03:10:13;101226.25;;;14.45;85.35
30897;BME280;64229;52.246;21.054;2023-08-12T03:12:39;101226.25;;;14.45;85.06
30897;BME280;64229;52.246;21.054;2023-08-12T03:15:07;101223.56;;;14.45;84.66
30897;BME280;64229;52.246;21.054;2023-08-12T03:17:32;101230.81;;;14.45;84.32
30897;BME280;64229;52.246;21.054;2023-08-12T03:19:57;101228.38;;;14.43;83.95
30897;BME280;64229;52.246;21.054;2023-08-12T03:22:29;101234.56;;;14.44;84.25
30897;BME280;64229;52.246;21.054;2023-08-12T03:24:54;101238.31;;;14.43;84.40
30897;BME280;64229;52.246;21.054;2023-08-12T03:27:19;101233.22;;;14.41;84.37
30897;BME280;64229;52.246;21.054;2023-08-12T03:29:44;101231.34;;;14.42;84.22
30897;BME280;64229;52.246;21.054;2023-08-12T03:32:10;101218.44;;;14.34;84.54
30897;BME280;64229;52.246;21.054;2023-08-12T03:34:35;101233.75;;;14.38;84.61
30897;BME280;64229;52.246;21.054;2023-08-12T03:37:00;101243.97;;;14.36;84.02
30897;BME280;64229;52.246;21.054;2023-08-12T03:39:26;101246.09;;;14.34;84.39
30897;BME280;64229;52.246;21.054;2023-08-12T03:41:51;101239.91;;;14.34;84.44
30897;BME280;64229;52.246;21.054;2023-08-12T03:44:18;101238.03;;;14.34;84.28
30897;BME280;64229;52.246;21.054;2023-08-12T03:46:43;101240.19;;;14.32;84.20
30897;BME280;64229;52.246;21.054;2023-08-12T03:49:08;101236.41;;;14.33;84.48
30897;BME280;64229;52.246;21.054;2023-08-12T03:51:33;101239.09;;;14.33;84.59
30897;BME280;64229;52.246;21.054;2023-08-12T03:53:59;101231.06;;;14.33;84.88
30897;BME280;64229;52.246;21.054;2023-08-12T03:56:24;101245.84;;;14.36;84.91
30897;BME280;64229;52.246;21.054;2023-08-12T03:58:49;101240.72;;;14.34;84.45
30897;BME280;64229;52.246;21.054;2023-08-12T04:01:15;101246.34;;;14.33;84.83
30897;BME280;64229;52.246;21.054;2023-08-12T04:03:40;101247.44;;;14.32;85.01
30897;BME280;64229;52.246;21.054;2023-08-12T04:06:05;101243.13;;;14.31;84.54
30897;BME280;64229;52.246;21.054;2023-08-12T04:08:31;101235.91;;;14.26;85.05
30897;BME280;64229;52.246;21.054;2023-08-12T04:10:57;101238.59;;;14.36;84.95
30897;BME280;64229;52.246;21.054;2023-08-12T04:13:22;101252.28;;;14.40;85.51
30897;BME280;64229;52.246;21.054;2023-08-12T04:15:50;101241.81;;;14.38;85.74
30897;BME280;64229;52.246;21.054;2023-08-12T04:18:15;101239.41;;;14.42;85.64
30897;BME280;64229;52.246;21.054;2023-08-12T04:20:41;101235.09;;;14.41;85.70
30897;BME280;64229;52.246;21.054;2023-08-12T04:23:06;101239.94;;;14.44;86.28
30897;BME280;64229;52.246;21.054;2023-08-12T04:25:31;101245.88;;;14.46;86.41
30897;BME280;64229;52.246;21.054;2023-08-12T04:27:57;101244.81;;;14.47;86.12
30897;BME280;64229;52.246;21.054;2023-08-12T04:30:23;101241.84;;;14.49;86.33
30897;BME280;64229;52.246;21.054;2023-08-12T04:32:48;101241.84;;;14.49;86.28
30897;BME280;64229;52.246;21.054;2023-08-12T04:35:13;101243.47;;;14.50;85.98
30897;BME280;64229;52.246;21.054;2023-08-12T04:37:38;101242.94;;;14.53;85.45
30897;BME280;64229;52.246;21.054;2023-08-12T04:40:04;101244.53;;;14.54;85.65
30897;BME280;64229;52.246;21.054;2023-08-12T04:42:30;101250.44;;;14.56;85.36
30897;BME280;64229;52.246;21.054;2023-08-12T04:44:55;101245.63;;;14.58;84.95
30897;BME280;64229;52.246;21.054;2023-08-12T04:47:20;101242.69;;;14.59;84.42
30897;BME280;64229;52.246;21.054;2023-08-12T04:49:45;101248.03;;;14.64;83.97
30897;BME280;64229;52.246;21.054;2023-08-12T04:52:11;101248.03;;;14.64;83.26
30897;BME280;64229;52.246;21.054;2023-08-12T04:54:36;101242.13;;;14.72;82.48
30897;BME280;64229;52.246;21.054;2023-08-12T04:57:01;101240.25;;;14.78;82.12
30897;BME280;64229;52.246;21.054;2023-08-12T04:59:26;101233.81;;;14.79;81.79
30897;BME280;64229;52.246;21.054;2023-08-12T05:01:52;101237.03;;;14.81;81.89
30897;BME280;64229;52.246;21.054;2023-08-12T05:04:17;101236.50;;;14.89;81.13
30897;BME280;64229;52.246;21.054;2023-08-12T05:06:42;101221.69;;;14.87;79.85
30897;BME280;64229;52.246;21.054;2023-08-12T05:09:08;101230.81;;;14.96;78.92
30897;BME280;64229;52.246;21.054;2023-08-12T05:11:33;101227.59;;;15.04;78.37
30897;BME280;64229;52.246;21.054;2023-08-12T05:13:58;101234.81;;;15.09;78.35
30897;BME280;64229;52.246;21.054;2023-08-12T05:16:24;101232.97;;;15.14;77.77
30897;BME280;64229;52.246;21.054;2023-08-12T05:18:49;101225.66;;;15.20;77.54
30897;BME280;64229;52.246;21.054;2023-08-12T05:21:14;101225.38;;;15.26;77.15
30897;BME280;64229;52.246;21.054;2023-08-12T05:23:39;101225.63;;;15.30;76.47
30897;BME280;64229;52.246;21.054;2023-08-12T05:26:05;101223.75;;;15.36;76.26
30897;BME280;64229;52.246;21.054;2023-08-12T05:28:30;101222.13;;;15.40;76.41
30897;BME280;64229;52.246;21.054;2023-08-12T05:30:55;101223.72;;;15.46;76.14
30897;BME280;64229;52.246;21.054;2023-08-12T05:33:21;101227.75;;;15.53;75.66
30897;BME280;64229;52.246;21.054;2023-08-12T05:35:47;101223.94;;;15.59;74.75
30897;BME280;64229;52.246;21.054;2023-08-12T05:38:13;101228.25;;;15.66;74.56
30897;BME280;64229;52.246;21.054;2023-08-12T05:40:38;101216.94;;;15.69;74.58
30897;BME280;64229;52.246;21.054;2023-08-12T05:43:03;101205.38;;;15.68;74.38
30897;BME280;64229;52.246;21.054;2023-08-12T05:45:29;101226.28;;;15.81;74.08
30897;BME280;64229;52.246;21.054;2023-08-12T05:47:54;101208.53;;;15.80;73.94
30897;BME280;64229;52.246;21.054;2023-08-12T05:50:19;101221.66;;;15.92;73.79
30897;BME280;64229;52.246;21.054;2023-08-12T05:52:44;101218.97;;;15.97;73.01
30897;BME280;64229;52.246;21.054;2023-08-12T05:55:10;101228.88;;;16.07;72.80
30897;BME280;64229;52.246;21.054;2023-08-12T05:57:35;101221.25;;;16.14;72.19
30897;BME280;64229;52.246;21.054;2023-08-12T06:00:00;101209.63;;;16.24;71.54
30897;BME280;64229;52.246;21.054;2023-08-12T06:02:26;101218.97;;;16.36;71.57
30897;BME280;64229;52.246;21.054;2023-08-12T06:04:51;101217.78;;;16.47;70.62
30897;BME280;64229;52.246;21.054;2023-08-12T06:07:17;101218.25;;;16.60;69.90
30897;BME280;64229;52.246;21.054;2023-08-12T06:09:43;101204.44;;;16.71;69.45
30897;BME280;64229;52.246;21.054;2023-08-12T06:12:09;101212.66;;;16.85;69.44
30897;BME280;64229;52.246;21.054;2023-08-12T06:14:37;101216.00;;;17.01;68.74
30897;BME280;64229;52.246;21.054;2023-08-12T06:17:02;101214.00;;;17.12;68.69
30897;BME280;64229;52.246;21.054;2023-08-12T06:19:27;101197.56;;;17.13;68.57
30897;BME280;64229;52.246;21.054;2023-08-12T06:21:53;101214.09;;;17.30;68.52
30897;BME280;64229;52.246;21.054;2023-08-12T06:24:18;101212.16;;;17.36;68.82
30897;BME280;64229;52.246;21.054;2023-08-12T06:26:43;101218.22;;;17.47;68.64
30897;BME280;64229;52.246;21.054;2023-08-12T06:29:08;101212.75;;;17.52;68.69
30897;BME280;64229;52.246;21.054;2023-08-12T06:31:34;101215.84;;;17.64;68.57
30897;BME280;64229;52.246;21.054;2023-08-12T06:33:59;101224.94;;;17.73;68.24
30897;BME280;64229;52.246;21.054;2023-08-12T06:36:24;101225.91;;;17.82;68.05
30897;BME280;64229;52.246;21.054;2023-08-12T06:38:49;101229.28;;;17.93;68.22
30897;BME280;64229;52.246;21.054;2023-08-12T06:41:15;101227.03;;;18.00;67.87
30897;BME280;64229;52.246;21.054;2023-08-12T06:43:40;101224.47;;;18.09;68.10
30897;BME280;64229;52.246;21.054;2023-08-12T06:46:05;101222.44;;;18.19;67.88
30897;BME280;64229;52.246;21.054;2023-08-12T06:48:30;101231.19;;;18.30;67.66
30897;BME280;64229;52.246;21.054;2023-08-12T06:50:56;101229.94;;;18.41;66.89
30897;BME280;64229;52.246;21.054;2023-08-12T06:53:21;101228.38;;;18.54;66.01
30897;BME280;64229;52.246;21.054;2023-08-12T06:55:47;101223.63;;;18.65;65.32
30897;BME280;64229;52.246;21.054;2023-08-12T06:58:13;101221.69;;;18.84;64.55
30897;BME280;64229;52.246;21.054;2023-08-12T07:00:39;101214.38;;;18.98;63.99
30897;BME280;64229;52.246;21.054;2023-08-12T07:03:05;101226.03;;;19.13;63.31
30897;BME280;64229;52.246;21.054;2023-08-12T07:05:30;101219.03;;;19.25;62.48
30897;BME280;64229;52.246;21.054;2023-08-12T07:07:55;101216.94;;;19.36;61.94
30897;BME280;64229;52.246;21.054;2023-08-12T07:10:21;101212.63;;;19.49;61.37
30897;BME280;64229;52.246;21.054;2023-08-12T07:12:46;101217.38;;;19.57;60.83
30897;BME280;64229;52.246;21.054;2023-08-12T07:15:11;101222.25;;;19.69;60.25
30897;BME280;64229;52.246;21.054;2023-08-12T07:17:37;101223.75;;;19.75;55.82
30897;BME280;64229;52.246;21.054;2023-08-12T07:20:02;101222.41;;;19.86;55.33
30897;BME280;64229;52.246;21.054;2023-08-12T07:22:29;101216.19;;;19.99;54.77
30897;BME280;64229;52.246;21.054;2023-08-12T07:24:54;101214.91;;;20.19;52.95
30897;BME280;64229;52.246;21.054;2023-08-12T07:27:20;101220.94;;;20.38;53.42
30897;BME280;64229;52.246;21.054;2023-08-12T07:29:46;101217.59;;;20.55;53.29
30897;BME280;64229;52.246;21.054;2023-08-12T07:32:11;101206.44;;;20.57;49.83
30897;BME280;64229;52.246;21.054;2023-08-12T07:34:37;101217.53;;;20.69;50.15
30897;BME280;64229;52.246;21.054;2023-08-12T07:37:02;101206.59;;;20.83;49.00
30897;BME280;64229;52.246;21.054;2023-08-12T07:39:28;101205.72;;;20.96;48.20
30897;BME280;64229;52.246;21.054;2023-08-12T07:41:53;101207.88;;;21.16;46.71
30897;BME280;64229;52.246;21.054;2023-08-12T07:44:18;101207.53;;;21.49;45.11
30897;BME280;64229;52.246;21.054;2023-08-12T07:46:43;101202.81;;;22.49;42.99
30897;BME280;64229;52.246;21.054;2023-08-12T07:49:09;101209.72;;;23.70;39.25
30897;BME280;64229;52.246;21.054;2023-08-12T07:51:35;101201.59;;;24.78;38.25
30897;BME280;64229;52.246;21.054;2023-08-12T07:54:00;101198.69;;;25.56;35.40
30897;BME280;64229;52.246;21.054;2023-08-12T07:56:25;101194.25;;;26.32;34.36
30897;BME280;64229;52.246;21.054;2023-08-12T07:58:51;101198.19;;;27.06;32.23
30897;BME280;64229;52.246;21.054;2023-08-12T08:01:16;101186.72;;;27.87;31.33
30897;BME280;64229;52.246;21.054;2023-08-12T08:03:41;101190.28;;;28.49;30.81
30897;BME280;64229;52.246;21.054;2023-08-12T08:06:06;101190.31;;;29.44;29.49
30897;BME280;64229;52.246;21.054;2023-08-12T08:08:32;101183.94;;;30.27;27.79
30897;BME280;64229;52.246;21.054;2023-08-12T08:10:57;101196.75;;;30.90;27.00
30897;BME280;64229;52.246;21.054;2023-08-12T08:13:22;101196.31;;;31.32;25.86
30897;BME280;64229;52.246;21.054;2023-08-12T08:15:48;101194.00;;;31.37;25.98
30897;BME280;64229;52.246;21.054;2023-08-12T08:18:13;101182.69;;;31.67;25.05
30897;BME280;64229;52.246;21.054;2023-08-12T08:20:41;101189.41;;;31.66;24.83
30897;BME280;64229;52.246;21.054;2023-08-12T08:23:06;101180.13;;;32.03;24.61
30897;BME280;64229;52.246;21.054;2023-08-12T08:25:32;101174.19;;;31.94;24.35
30897;BME280;64229;52.246;21.054;2023-08-12T08:27:57;101161.97;;;31.99;24.82
30897;BME280;64229;52.246;21.054;2023-08-12T08:30:22;101171.38;;;31.83;24.24
30897;BME280;64229;52.246;21.054;2023-08-12T08:32:49;101171.34;;;31.76;24.23
30897;BME280;64229;52.246;21.054;2023-08-12T08:35:14;101173.00;;;31.99;24.05
30897;BME280;64229;52.246;21.054;2023-08-12T08:37:40;101177.81;;;32.23;23.63
30897;BME280;64229;52.246;21.054;2023-08-12T08:40:06;101170.78;;;32.36;23.61
30897;BME280;64229;52.246;21.054;2023-08-12T08:42:33;101170.78;;;32.58;23.24
30897;BME280;64229;52.246;21.054;2023-08-12T08:45:00;101167.25;;;32.57;23.21
30897;BME280;64229;52.246;21.054;2023-08-12T08:47:27;101162.88;;;33.13;22.50
30897;BME280;64229;52.246;21.054;2023-08-12T08:49:54;101156.19;;;32.93;22.92
30897;BME280;64229;52.246;21.054;2023-08-12T08:52:21;101162.91;;;32.95;23.55
30897;BME280;64229;52.246;21.054;2023-08-12T08:54:47;101161.66;;;33.43;22.83
30897;BME280;64229;52.246;21.054;2023-08-12T08:57:13;101163.25;;;33.26;23.11
30897;BME280;64229;52.246;21.054;2023-08-12T08:59:38;101165.59;;;33.34;22.41
30897;BME280;64229;52.246;21.054;2023-08-12T09:02:04;101160.88;;;33.38;22.47
30897;BME280;64229;52.246;21.054;2023-08-12T09:04:30;101150.59;;;33.43;22.02
30897;BME280;64229;52.246;21.054;2023-08-12T09:06:57;101146.56;;;33.65;22.05
30897;BME280;64229;52.246;21.054;2023-08-12T09:09:24;101144.59;;;33.58;22.38
30897;BME280;64229;52.246;21.054;2023-08-12T09:11:51;101158.06;;;34.37;21.21
30897;BME280;64229;52.246;21.054;2023-08-12T09:14:17;101153.94;;;34.04;21.05
30897;BME280;64229;52.246;21.054;2023-08-12T09:16:43;101140.78;;;34.15;21.12
30897;BME280;64229;52.246;21.054;2023-08-12T09:19:09;101138.34;;;33.26;21.96
30897;BME280;64229;52.246;21.054;2023-08-12T09:21:34;101142.78;;;32.88;22.92
30897;BME280;64229;52.246;21.054;2023-08-12T09:24:02;101138.38;;;33.15;22.63
30897;BME280;64229;52.246;21.054;2023-08-12T09:26:29;101136.34;;;33.48;22.11
30897;BME280;64229;52.246;21.054;2023-08-12T09:28:54;101135.94;;;33.53;22.19
30897;BME280;64229;52.246;21.054;2023-08-12T09:31:25;101140.31;;;34.23;21.22
30897;BME280;64229;52.246;21.054;2023-08-12T09:33:52;101135.72;;;34.62;20.52
30897;BME280;64229;52.246;21.054;2023-08-12T09:36:18;101136.34;;;34.28;21.35
30897;BME280;64229;52.246;21.054;2023-08-12T09:38:44;101135.41;;;33.79;21.60
30897;BME280;64229;52.246;21.054;2023-08-12T09:41:10;101129.69;;;33.17;20.72
30897;BME280;64229;52.246;21.054;2023-08-12T09:43:40;101130.13;;;32.51;22.00
30897;BME280;64229;52.246;21.054;2023-08-12T09:46:05;101131.69;;;32.41;23.21
30897;BME280;64229;52.246;21.054;2023-08-12T09:48:31;101126.97;;;32.77;22.35
30897;BME280;64229;52.246;21.054;2023-08-12T09:50:57;101132.84;;;33.15;21.62
30897;BME280;64229;52.246;21.054;2023-08-12T09:53:23;101127.09;;;33.83;20.84
30897;BME280;64229;52.246;21.054;2023-08-12T09:55:48;101122.16;;;33.42;21.31
30897;BME280;64229;52.246;21.054;2023-08-12T09:58:17;101113.56;;;32.87;21.31
30897;BME280;64229;52.246;21.054;2023-08-12T10:00:43;101121.84;;;32.76;21.54
30897;BME280;64229;52.246;21.054;2023-08-12T10:03:10;101115.53;;;32.54;21.00
30897;BME280;64229;52.246;21.054;2023-08-12T10:05:37;101114.34;;;32.59;21.35
30897;BME280;64229;52.246;21.054;2023-08-12T10:08:03;101107.59;;;32.31;22.83
30897;BME280;64229;52.246;21.054;2023-08-12T10:10:30;101107.63;;;32.52;22.62
30897;BME280;64229;52.246;21.054;2023-08-12T10:12:55;101096.56;;;32.52;22.42
30897;BME280;64229;52.246;21.054;2023-08-12T10:15:21;101092.97;;;32.20;21.44
30897;BME280;64229;52.246;21.054;2023-08-12T10:17:46;101092.69;;;31.31;22.78
30897;BME280;64229;52.246;21.054;2023-08-12T10:20:21;101096.22;;;29.91;23.70
30897;BME280;64229;52.246;21.054;2023-08-12T10:22:47;101092.19;;;29.48;24.21
30897;BME280;64229;52.246;21.054;2023-08-12T10:25:14;101073.31;;;28.67;25.13
30897;BME280;64229;52.246;21.054;2023-08-12T10:27:40;101083.56;;;28.24;26.04
30897;BME280;64229;52.246;21.054;2023-08-12T10:30:06;101078.59;;;28.30;27.05
30897;BME280;64229;52.246;21.054;2023-08-12T10:32:33;101087.38;;;28.39;27.17
30897;BME280;64229;52.246;21.054;2023-08-12T10:34:59;101066.94;;;28.37;26.72
30897;BME280;64229;52.246;21.054;2023-08-12T10:37:25;101077.28;;;28.24;27.56
30897;BME280;64229;52.246;21.054;2023-08-12T10:39:53;101074.66;;;28.08;28.59
30897;BME280;64229;52.246;21.054;2023-08-12T10:42:44;101071.91;;;28.08;27.69
30897;BME280;64229;52.246;21.054;2023-08-12T10:45:11;101067.72;;;27.95;28.14
30897;BME280;64229;52.246;21.054;2023-08-12T10:47:47;101067.88;;;27.63;28.88
30897;BME280;64229;52.246;21.054;2023-08-12T10:50:18;101050.94;;;27.38;28.89
30897;BME280;64229;52.246;21.054;2023-08-12T10:52:43;101058.50;;;27.45;29.23
30897;BME280;64229;52.246;21.054;2023-08-12T10:55:23;101057.03;;;27.32;29.33
30897;BME280;64229;52.246;21.054;2023-08-12T10:57:50;101053.75;;;27.23;29.96
30897;BME280;64229;52.246;21.054;2023-08-12T11:00:18;101049.03;;;27.04;30.13
30897;BME280;64229;52.246;21.054;2023-08-12T11:02:49;101050.19;;;27.03;31.08
30897;BME280;64229;52.246;21.054;2023-08-12T11:05:15;101038.78;;;26.85;30.32
30897;BME280;64229;52.246;21.054;2023-08-12T11:07:48;101047.91;;;26.58;29.90
30897;BME280;64229;52.246;21.054;2023-08-12T11:10:18;101046.84;;;26.46;30.60
30897;BME280;64229;52.246;21.054;2023-08-12T11:12:55;101042.13;;;26.00;31.58
30897;BME280;64229;52.246;21.054;2023-08-12T11:15:35;101037.16;;;25.74;31.76
30897;BME280;64229;52.246;21.054;2023-08-12T11:18:06;101036.63;;;25.84;33.34
30897;BME280;64229;52.246;21.054;2023-08-12T11:20:33;101040.09;;;25.97;34.35
30897;BME280;64229;52.246;21.054;2023-08-12T11:22:58;101030.41;;;26.15;32.13
30897;BME280;64229;52.246;21.054;2023-08-12T11:25:25;101024.84;;;26.11;32.36
30897;BME280;64229;52.246;21.054;2023-08-12T11:27:51;101032.09;;;26.35;32.02
30897;BME280;64229;52.246;21.054;2023-08-12T11:30:19;101031.94;;;26.44;32.29
30897;BME280;64229;52.246;21.054;2023-08-12T11:32:46;101030.78;;;26.45;32.40
30897;BME280;64229;52.246;21.054;2023-08-12T11:35:14;101023.13;;;26.50;32.16
30897;BME280;64229;52.246;21.054;2023-08-12T11:37:41;101029.47;;;26.55;31.97
30897;BME280;64229;52.246;21.054;2023-08-12T11:40:09;101024.88;;;26.43;31.36
30897;BME280;64229;52.246;21.054;2023-08-12T11:42:36;101019.56;;;26.34;31.62
30897;BME280;64229;52.246;21.054;2023-08-12T11:45:05;101020.19;;;26.28;31.65
30897;BME280;64229;52.246;21.054;2023-08-12T11:47:31;101023.00;;;26.31;31.61
30897;BME280;64229;52.246;21.054;2023-08-12T11:49:56;101012.28;;;26.38;32.32
30897;BME280;64229;52.246;21.054;2023-08-12T11:52:22;101007.75;;;26.62;32.26
30897;BME280;64229;52.246;21.054;2023-08-12T11:54:49;101002.50;;;26.72;32.35
30897;BME280;64229;52.246;21.054;2023-08-12T11:57:15;101000.50;;;26.69;32.02
30897;BME280;64229;52.246;21.054;2023-08-12T11:59:40;100996.31;;;26.75;32.03
30897;BME280;64229;52.246;21.054;2023-08-12T12:02:05;101000.91;;;26.71;33.01
30897;BME280;64229;52.246;21.054;2023-08-12T12:04:31;100998.50;;;26.86;31.84
30897;BME280;64229;52.246;21.054;2023-08-12T12:06:57;100997.63;;;26.81;31.46
30897;BME280;64229;52.246;21.054;2023-08-12T12:09:22;101004.03;;;26.70;31.37
30897;BME280;64229;52.246;21.054;2023-08-12T12:11:52;100996.34;;;26.60;32.18
30897;BME280;64229;52.246;21.054;2023-08-12T12:14:18;100992.34;;;26.73;32.69
30897;BME280;64229;52.246;21.054;2023-08-12T12:16:48;100988.88;;;26.76;32.06
30897;BME280;64229;52.246;21.054;2023-08-12T12:19:16;100987.41;;;26.63;31.83
30897;BME280;64229;52.246;21.054;2023-08-12T12:21:42;100983.59;;;26.67;32.04
30897;BME280;64229;52.246;21.054;2023-08-12T12:24:09;100960.75;;;26.60;32.53
30897;BME280;64229;52.246;21.054;2023-08-12T12:26:35;100978.28;;;26.74;32.53
30897;BME280;64229;52.246;21.054;2023-08-12T12:29:02;100970.09;;;26.74;32.30
30897;BME280;64229;52.246;21.054;2023-08-12T12:31:28;100971.59;;;26.72;32.14
30897;BME280;64229;52.246;21.054;2023-08-12T12:33:53;100969.16;;;27.02;31.60